Tiempo atmosférico en la estación meteorológica de Sevilla Aeropuerto, Sevilla (34 m.)



Fecha
DESCASC
Temp. máxima en grados centígrados (hora)
DESCASC
Temp. mínima en grados centígrados (hora)
DESCASC
Temp. media en grados centígrados
DESCASC
Racha de viento máxima en m/sg (hora)
DESCASC
Velocidad máxima media en intervalos de 10 minutos(hora)
DESCASC
Precipitaciones diarias en mm
DESCASC
Precipitaciones de 00:00 a 06:00 en mm
DESCASC
Precipitaciones de 06:00 a 12:00 en mm
DESCASC
Precipitaciones de 12:00 a 18:00 en mm
DESCASC
Precipitaciones de 18:00 a 24:00 en mm
DESCASC
15-07-2018 28.7 (16:30) 18.2 (02:40) 23.5 13.89 (18:30) 9.72 (18:20) 0 0 0 0 0
14-07-2018 28.6 (16:00) 16.8 (05:00) 22.7 11.67 (22:00) 8.06 (20:50) 0 0 0 0 0
13-07-2018 29.5 (18:30) 16.6 (06:50) 23.1 9.17 (15:50) 5.28 (13:30) 0 0 0 0 0
12-07-2018 27.9 (16:50) 19.7 (00:00) 23.8 10.28 (18:40) 8.06 (19:30) 0 0 0 0 0
11-07-2018 30.6 (16:10) 19.9 (00:00) 25.3 11.39 (18:10) 8.33 (18:30) 0 0 0 0 0
10-07-2018 31.3 (16:30) 19.9 (00:00) 25.6 11.67 (19:30) 8.33 (19:30) 0 0 0 0 0
09-07-2018 37 (17:30) 20 (00:00) 28.5 9.72 (18:40) 6.67 (19:10) 0 0 0 0 0
08-07-2018 36.7 (17:30) 19.8 (07:20) 28.3 9.17 (18:50) 6.39 (19:00) 0 0 0 0 0
07-07-2018 37.4 (18:20) 18.3 (00:00) 27.9 9.17 (18:30) 5.83 (20:50) 0 0 0 0 0
06-07-2018 35.7 (18:10) 17.3 (00:00) 26.5 9.17 (20:20) 7.22 (20:20) 0 0 0 0 0
05-07-2018 32.2 (16:50) 17.3 (06:00) 24.8 10.28 (18:50) 7.5 (19:40) 0 0 0 0 0
04-07-2018 31 (18:00) 16.2 (07:30) 23.6 10.28 (17:10) 6.67 (20:40) -- 0 0 -- 0
03-07-2018 33.6 (17:30) 16.6 (07:00) 25.1 11.39 (19:00) 7.5 (19:00) 0 0 0 0 0
02-07-2018 29.6 (18:40) 17.2 (07:30) 23.4 8.89 (21:00) 6.39 (21:30) 0 0 0 0 0
01-07-2018 27 (14:40) 18.2 (00:00) 22.6 12.5 (17:30) 8.61 (16:40) 0 0 0 0 0
30-06-2018 27.9 (14:30) 17.4 (07:10) 22.6 13.33 (15:40) 8.61 (15:30) 0 0 0 0 0
29-06-2018 29.8 (16:50) 17 (00:00) 23.4 8.89 (17:20) 6.11 (20:00) 0 0 0 0 0
28-06-2018 27.9 (15:00) 18.1 (00:00) 23 10.83 (18:40) 7.5 (19:00) -- 0 -- 0 0
27-06-2018 32.4 (16:40) 17.8 (00:00) 25.1 11.39 (19:30) 8.06 (19:00) 0 0 0 0 0
26-06-2018 32.3 (17:30) 18.3 (00:00) 25.3 11.39 (20:30) 7.78 (19:50) 0 0 0 0 0
25-06-2018 29.9 (18:30) 20.2 (00:00) 25.1 9.72 (19:40) 7.78 (21:00) 0 0 0 0 0
24-06-2018 34.2 (17:10) 20.6 (00:00) 27.4 11.39 (18:20) 8.61 (19:10) 0 0 0 0 0
23-06-2018 36.8 (17:10) 18.6 (00:00) 27.7 9.72 (17:40) 6.67 (19:40) 0 0 0 0 0
22-06-2018 35.2 (18:10) 20.1 (07:00) 27.7 10.83 (20:00) 7.78 (20:00) 0 0 0 0 0
21-06-2018 34.2 (18:00) 20.7 (00:00) 27.5 11.39 (20:30) 8.06 (19:50) 0.3 0.3 0 0 0
20-06-2018 35.4 (18:10) 19.8 (00:00) 27.6 9.72 (19:00) 6.67 (23:20) 0 0 0 0 0
19-06-2018 36.7 (18:20) 19.9 (00:00) 28.3 9.17 (20:40) 6.67 (20:30) 0 0 0 0 0
18-06-2018 39.3 (17:50) 19.9 (00:00) 29.6 10.83 (19:40) 7.78 (19:00) 0 0 0 0 0
17-06-2018 38 (19:30) 18.7 (00:00) 28.4 8.89 (21:20) 6.39 (21:20) 0 0 0 0 0

Gráficas

Temp. máximas Temp. mínimas Temp. medias Precipitaciones Rachas de viento máximas Velocidades máximas media en intervalos de 10 minutos

Datos horarios

Fecha y hora oficial Temperatura (ºC) Velocidad del viento (km/h) Dirección del viento Racha (km/h) Dirección de racha Precipitación (mm) Presión (hPa) Tendencia (hPa) Humedad (%)
2018-07-16 23:00:00 26.2 10 Oeste 15 Sudoeste 0 1012.7 0.8 51
2018-07-16 22:00:00 27.4 14 Sudoeste 30 Sudoeste 0 1012.2 -0.1 51
2018-07-16 21:00:00 31.4 19 Sudoeste 30 Sudoeste 0 1011.8 -1.2 35
2018-07-16 20:00:00 33 5 Noroeste 13 Noroeste 0 1011.9 -1.7 27
2018-07-16 19:00:00 32.5 5 Norte 30 Noroeste 0 1012.3 -2.1 28
2018-07-16 18:00:00 32.1 9 Noroeste 22 Norte 0 1013 -2.3 29
2018-07-16 17:00:00 31.6 10 Norte 22 Noroeste 0 1013.6 -2.4 29
2018-07-16 16:00:00 30.4 14 Noroeste 26 Norte 0 1014.4 -2.3 31
2018-07-16 15:00:00 29.5 6 Este 21 Nordeste 0 1015.3 -1.5 32
2018-07-16 14:00:00 28 6 Noroeste 21 Oeste 0 1016 -0.8 36
2018-07-16 13:00:00 27 10 Oeste 18 Noroeste 0 1016.7 -0.3 43
2018-07-16 12:00:00 25.4 3 Nordeste 15 Sur 0 1016.8 0 52
2018-07-16 11:00:00 23.5 5 Norte 17 Norte 0 1016.8 0.3 61
2018-07-16 10:00:00 22.1 10 Nordeste 18 Norte 0 1017 0.7 66
2018-07-16 09:00:00 19.7 4 Norte 11 Norte 0 1016.8 0.6 75
2018-07-16 08:00:00 17.2 0 Calma 9 Sur 0 1016.5 0.2 89
2018-07-16 07:00:00 16.5 7 Sudeste 8 Sudeste 0 1016.3 0.2 90
2018-07-16 06:00:00 17.5 0 Calma 15 Sur 0 1016.2 -0.3 87
2018-07-16 05:00:00 18.3 7 Sudoeste 9 Sudoeste 0 1016.3 -0.4 82
2018-07-16 04:00:00 18.6 0 Calma 11 Sur 0 1016.1 -0.4 85
2018-07-16 03:00:00 19.4 8 Sudoeste 17 Sur 0 1016.5 -0.1 85
2018-07-16 02:00:00 19.6 15 Sur 18 Sur 0 1016.7 0.5 85
2018-07-16 01:00:00 20.1 12 Sur 21 Sur 0 1016.5 1.4 83
2018-07-16 00:00:00 20.8 13 Sudoeste 30 Sudoeste 0 1016.6 2 78
2018-07-15 23:00:00 21.4 22 Sudoeste 32 Sudoeste 0 1016.2 1.9 74
2018-07-15 22:00:00 22.5 18 Sudoeste 33 Sudoeste 0 1015.1 0.7 66
2018-07-15 21:00:00 24.3 19 Sudoeste 45 Sudoeste 0 1014.6 0.2 52
2018-07-15 20:00:00 25.1 31 Sudoeste 50 Sudoeste 0 1014.3 -0.3 51
2018-07-15 19:00:00 26.4 34 Sudoeste 50 Sudoeste 0 1014.4 -0.6 48
2018-07-15 18:00:00 27.2 28 Sudoeste 48 Sudoeste 0 1014.4 -1.1 43
2018-07-15 17:00:00 27.5 28 Sudoeste 41 Sudoeste 0 1014.6 -1.3 42
2018-07-15 16:00:00 27.6 15 Sudoeste 33 Sudoeste 0 1015 -1.3 38
2018-07-15 15:00:00 26.5 15 Sudoeste 32 Sudoeste 0 1015.5 -0.9 44
2018-07-15 14:00:00 25.5 12 Oeste 28 Sudoeste 0 1015.9 -0.7 48
2018-07-15 13:00:00 24.3 10 Oeste 21 Oeste 0 1016.3 -0.1 53
2018-07-15 12:00:00 23.2 12 Sudoeste 21 Sudoeste 0 1016.4 0.2 61
2018-07-15 11:00:00 23.1 8 Este 13 Este 0 1016.6 0.7 62
2018-07-15 10:00:00 20.5 3 Norte 17 Norte 0 1016.4 0.9 73
2018-07-15 09:00:00 19.8 5 Nordeste 13 Norte 0 1016.2 0.8 77
2018-07-15 08:00:00 19.1 4 Este 11 Este 0 1015.9 0.8 80
2018-07-15 07:00:00 18.4 4 Sudeste 11 Sur 0 1015.5 0.1 83
2018-07-15 06:00:00 18.4 9 Sur 15 Sur 0 1015.4 -0.6 83
2018-07-15 05:00:00 18.7 13 Sur 17 Sur 0 1015.1 -1.1 82
2018-07-15 04:00:00 18.8 7 Sur 18 Sur 0 1015.4 -1.1 82
2018-07-15 03:00:00 18.3 9 Sur 21 Sur 0 1016 -0.4 83
2018-07-15 02:00:00 18.9 11 Sur 22 Sudoeste 0 1016.2 0.4 81
2018-07-15 01:00:00 19.1 15 Sudoeste 26 Sudoeste 0 1016.5 1.7 81
2018-07-15 00:00:00 19.5 19 Sudoeste 35 Sudoeste 0 1016.4 2.5 79
2018-07-14 23:00:00 20.3 24 Sudoeste 37 Sudoeste 0 1015.8 2.3 72
2018-07-14 22:00:00 21.5 27 Sudoeste 42 Sudoeste 0 1014.8 1.5 62
2018-07-14 21:00:00 23.9 27 Sudoeste 41 Sudoeste 0 1013.9 0.3 50
2018-07-14 20:00:00 26 27 Sudoeste 37 Sudoeste 0 1013.5 -0.5 43
2018-07-14 19:00:00 27.6 22 Sudoeste 35 Sudoeste 0 1013.3 -1.2 39
2018-07-14 18:00:00 27.9 24 Sudoeste 37 Sudoeste 0 1013.6 -1.4 42
2018-07-14 17:00:00 28.3 22 Sudoeste 37 Sudoeste 0 1014 -1.5 45
2018-07-14 16:00:00 28.4 16 Sudoeste 30 Sudoeste 0 1014.5 -1.3 44
2018-07-14 15:00:00 27.5 19 Sudoeste 33 Sudoeste 0 1015 -0.7 44
2018-07-14 14:00:00 26.6 14 Sudoeste 28 Sudoeste 0 1015.5 0 49
2018-07-14 13:00:00 25.1 14 Oeste 28 Sudoeste 0 1015.8 0.6 57
2018-07-14 12:00:00 23.6 13 Oeste 21 Sudoeste 0 1015.7 0.8 63
2018-07-14 11:00:00 22.3 8 Sudoeste 18 Sudoeste 0 1015.5 0.9 68
2018-07-14 10:00:00 20.5 5 Sur 11 Sur 0 1015.2 1 78
2018-07-14 09:00:00 19.1 3 Este 8 Sudeste 0 1014.9 0.5 84
2018-07-14 08:00:00 16.9 3 Este 9 Sudeste 0 1014.6 0.5 89
2018-07-14 07:00:00 17 8 Sudeste 13 Sudeste 0 1014.2 0.2 90
2018-07-14 06:00:00 16.8 8 Sudeste 9 Sudeste 0 1014.4 0.2 91
2018-07-14 05:00:00 16.8 5 Sur 11 Sur 0 1014.1 -0.1 91
2018-07-14 04:00:00 17.6 8 Sur 11 Sur 0 1014 -0.2 90
2018-07-14 03:00:00 18.9 6 Sur 13 Sur 0 1014.2 0.4 85
2018-07-14 02:00:00 19.5 11 Sur 15 Sur 0 1014.2 1 85
2018-07-14 01:00:00 20.3 8 Sudoeste 18 Sudoeste 0 1014.2 1.9 78
2018-07-14 00:00:00 21.4 12 Sudoeste 24 Sudoeste 0 1013.8 2 71
2018-07-13 23:00:00 23.1 18 Sudoeste 26 Sudoeste 0 1013.2 1.8 62
2018-07-13 22:00:00 24.5 15 Sudoeste 26 Sudoeste 0 1012.3 0.7 56
2018-07-13 21:00:00 26.8 18 Sudoeste 24 Sudoeste 0 1011.8 -0.2 47
2018-07-13 20:00:00 28.1 16 Sudoeste 28 Oeste 0 1011.4 -1 43
2018-07-13 19:00:00 29 16 Sudoeste 26 Sudoeste 0 1011.6 -1.1 36
2018-07-13 18:00:00 29 15 Sudoeste 30 Sudoeste 0 1012 -1.1 38
2018-07-13 17:00:00 28.9 17 Sudoeste 30 Oeste 0 1012.4 -1 41
2018-07-13 16:00:00 28.1 13 Oeste 33 Sudoeste 0 1012.7 -1 41
2018-07-13 15:00:00 27 15 Sudoeste 32 Sudoeste 0 1013.1 -0.6 43
2018-07-13 14:00:00 26.4 15 Sudoeste 32 Sudoeste 0 1013.4 0.1 45
2018-07-13 13:00:00 25.1 16 Sudoeste 28 Oeste 0 1013.7 0.5 49
2018-07-13 12:00:00 24.6 10 Oeste 18 Oeste 0 1013.7 0.8 50
2018-07-13 11:00:00 22.2 5 Sudoeste 17 Sudeste 0 1013.3 0.6 62
2018-07-13 10:00:00 20.9 2 Sur 9 Nordeste 0 1013.2 0.8 70
2018-07-13 09:00:00 19.3 3 Nordeste 9 Norte 0 1012.9 0.6 79
2018-07-13 08:00:00 17.3 5 Este 5 Este 0 1012.7 0.2 86
2018-07-13 07:00:00 16.7 5 Sudeste 9 Sudeste 0 1012.4 -0.1 89
2018-07-13 06:00:00 17.4 8 Sudeste 9 Sur 0 1012.3 -0.2 87
2018-07-13 05:00:00 18.9 5 Sur 9 Sur 0 1012.5 0 82
2018-07-13 04:00:00 18.8 5 Sur 11 Sur 0 1012.5 0 85
2018-07-13 03:00:00 19.5 8 Sudoeste 13 Oeste 0 1012.5 0.1 81
2018-07-13 02:00:00 19.9 10 Sudoeste 17 Sudoeste 0 1012.5 0.6 78
2018-07-13 01:00:00 20.3 10 Sudoeste 22 Sudoeste 0 1012.5 1.4 76
2018-07-13 00:00:00 20.7 15 Sudoeste 26 Sudoeste 0 1012.4 1.6 75
2018-07-12 23:00:00 21.3 18 Sudoeste 32 Sudoeste 0 1011.9 1.3 71
2018-07-12 22:00:00 22.3 23 Sudoeste 33 Sudoeste 0 1011.1 0.7 66
2018-07-12 21:00:00 23.9 23 Sudoeste 35 Sudoeste 0 1010.8 0.3 59
2018-07-12 20:00:00 25.3 26 Sudoeste 37 Sudoeste 0 1010.6 -0.2 53
2018-07-12 19:00:00 26.5 27 Sudoeste 37 Sudoeste 0 1010.4 -0.9 51
2018-07-12 18:00:00 27.4 23 Sudoeste 33 Sudoeste 0 1010.5 -1.3 51
2018-07-12 17:00:00 27.6 19 Sudoeste 32 Sudoeste 0 1010.8 -1.6 53
2018-07-12 16:00:00 27.2 15 Sudoeste 26 Sudoeste 0 1011.3 -1.5 54
2018-07-12 15:00:00 25.9 14 Sudoeste 30 Sudoeste 0 1011.8 -1.3 59
2018-07-12 14:00:00 24.9 5 Sudoeste 22 Oeste 0 1012.4 -0.5 64
2018-07-12 13:00:00 24 11 Sudoeste 21 Sudoeste 0 1012.8 0.2 66
2018-07-12 12:00:00 22.7 11 Sudoeste 22 Sudoeste 0 1013.1 1.1 71
2018-07-12 11:00:00 21.8 8 Sudoeste 17 Sudoeste 0 1012.9 1.3 75
2018-07-12 10:00:00 21.3 12 Sudoeste 17 Sudoeste 0 1012.6 1.2 78
2018-07-12 09:00:00 20.7 12 Sudoeste 17 Sudoeste 0 1012 0.7 81
2018-07-12 08:00:00 20.3 9 Sudoeste 18 Sudoeste 0 1011.6 0.2 83
2018-07-12 07:00:00 20.1 13 Sudoeste 21 Sudoeste 0 1011.4 0 85
2018-07-12 06:00:00 19.9 12 Sudoeste 18 Sudoeste 0 1011.3 -0.1 86
2018-07-12 05:00:00 19.8 11 Sudoeste 21 Sur 0 1011.4 0.1 86
2018-07-12 04:00:00 19.9 12 Sudoeste 22 Sudoeste 0 1011.4 -0.1 87
2018-07-12 03:00:00 19.7 10 Sur 24 Sudoeste 0 1011.4 0 88
2018-07-12 02:00:00 20 13 Sur 30 Sudoeste 0 1011.3 0.2 88
2018-07-12 01:00:00 20.3 19 Sudoeste 30 Sudoeste 0 1011.5 1.3 87
2018-07-12 00:00:00 21 15 Sudoeste 28 Sudoeste 0 1011.4 1.7 82
2018-07-11 23:00:00 21.8 21 Sudoeste 30 Sudoeste 0 1011.1 1.5 77
2018-07-11 22:00:00 22.9 21 Sudoeste 39 Sudoeste 0 1010.2 0.5 72
2018-07-11 21:00:00 24.8 27 Sudoeste 37 Sudoeste 0 1009.7 -0.2 65
2018-07-11 20:00:00 26.2 29 Sudoeste 39 Sudoeste 0 1009.6 -0.6 58
2018-07-11 19:00:00 27.4 26 Sudoeste 41 Sudoeste 0 1009.7 -0.9 56
2018-07-11 18:00:00 28.7 30 Sudoeste 39 Sudoeste 0 1009.9 -1.4 52
2018-07-11 17:00:00 29.9 24 Sudoeste 35 Sudoeste 0 1010.2 -1.7 49
2018-07-11 16:00:00 30.3 19 Sudoeste 30 Sudoeste 0 1010.6 -1.9 46
2018-07-11 15:00:00 29.1 15 Sudoeste 30 Oeste 0 1011.3 -1.6 45
2018-07-11 14:00:00 27.2 14 Oeste 26 Oeste 0 1011.9 -1 55
2018-07-11 13:00:00 24.6 14 Oeste 30 Oeste 0 1012.5 -0.3 66
2018-07-11 12:00:00 23.4 12 Oeste 21 Oeste 0 1012.9 0.3 70
2018-07-11 11:00:00 21.3 12 Sudoeste 21 Oeste 0 1012.9 0.7 79
2018-07-11 10:00:00 20.4 9 Sur 17 Sudoeste 0 1012.8 0.6 84
2018-07-11 09:00:00 20.1 10 Sur 17 Sudoeste 0 1012.6 0.6 85
2018-07-11 08:00:00 19.9 10 Sudoeste 18 Sur 0 1012.2 -0.1 87
2018-07-11 07:00:00 20.2 12 Sudoeste 17 Sudoeste 0 1012.2 0 87
2018-07-11 06:00:00 20.3 9 Sudoeste 15 Sudoeste 0 1012 -0.8 86
2018-07-11 05:00:00 20.2 10 Sudoeste 18 Sudoeste 0 1012.3 -1 87
2018-07-11 04:00:00 20.4 9 Sur 21 Sudoeste 0 1012.2 -1 87
2018-07-11 03:00:00 20.3 17 Sudoeste 28 Sudoeste 0 1012.8 -0.4 88
2018-07-11 02:00:00 20.4 19 Sudoeste 28 Sudoeste 0 1013.3 0.2 88
2018-07-11 01:00:00 21 13 Sudoeste 30 Sudoeste 0 1013.2 0.6 87
2018-07-11 00:00:00 21.6 14 Sudoeste 32 Sudoeste 0 1013.2 1.2 83
2018-07-10 23:00:00 22.7 24 Sudoeste 33 Sudoeste 0 1013.1 1.5 78
2018-07-10 22:00:00 24.1 22 Sudoeste 33 Sudoeste 0 1012.6 0.9 73
2018-07-10 21:00:00 26.4 24 Sudoeste 37 Sudoeste 0 1012 -0.1 64
2018-07-10 20:00:00 28.3 26 Sudoeste 42 Sudoeste 0 1011.6 -0.8 57
2018-07-10 19:00:00 30.6 26 Sudoeste 39 Sudoeste 0 1011.7 -1.1 49
2018-07-10 18:00:00 30.7 23 Sudoeste 39 Sudoeste 0 1012.1 -1.3 49
2018-07-10 17:00:00 30.8 26 Sudoeste 35 Sudoeste 0 1012.4 -1.7 48
2018-07-10 16:00:00 31 22 Sudoeste 35 Sudoeste 0 1012.8 -1.6 47
2018-07-10 15:00:00 30.1 20 Sudoeste 32 Sudoeste 0 1013.4 -1.5 49
2018-07-10 14:00:00 29.3 20 Sudoeste 32 Sudoeste 0 1014.1 -0.6 53
2018-07-10 13:00:00 27.8 19 Sudoeste 35 Sudoeste 0 1014.4 -0.1 58
2018-07-10 12:00:00 26.4 20 Sudoeste 32 Sudoeste 0 1014.9 0.7 63
2018-07-10 11:00:00 24.7 20 Sudoeste 30 Sudoeste 0 1014.7 1.1 71
2018-07-10 10:00:00 22.3 18 Sudoeste 30 Sudoeste 0 1014.5 1.2 83
2018-07-10 09:00:00 22.3 17 Sudoeste 24 Sudoeste 0 1014.2 1.1 79
2018-07-10 08:00:00 21.3 10 Sudoeste 17 Sudoeste 0 1013.6 0.7 74
2018-07-10 07:00:00 19.9 0 Calma 4 Sur 0 1013.3 0.3 72
2018-07-10 06:00:00 20.7 0 Calma 13 Sur 0 1013.1 -0.1 69
2018-07-10 05:00:00 20.8 7 Sur 13 Sur 0 1012.9 -0.3 73
2018-07-10 04:00:00 21.6 7 Sur 18 Sur 0 1013 -0.3 75
2018-07-10 03:00:00 22.4 15 Sur 26 Sur 0 1013.2 0 73
2018-07-10 02:00:00 24.1 19 Sur 24 Sur 0 1013.2 0.5 63
2018-07-10 01:00:00 25.4 14 Sur 18 Sudoeste 0 1013.3 1.2 57
2018-07-10 00:00:00 26.6 11 Sur 21 Sudoeste 0 1013.2 1.8 57
2018-07-09 23:00:00 28.5 14 Sudoeste 22 Sudoeste 0 1012.7 1.5 52
2018-07-09 22:00:00 31.9 17 Sudoeste 28 Oeste 0 1012.1 0.9 33
2018-07-09 21:00:00 34.6 19 Sudoeste 30 Sudoeste 0 1011.4 -0.2 22
2018-07-09 20:00:00 36.2 17 Sudoeste 33 Sudoeste 0 1011.2 -0.6 22
2018-07-09 19:00:00 36.4 22 Sudoeste 35 Sudoeste 0 1011.2 -1.2 25
2018-07-09 18:00:00 36.9 18 Sudoeste 30 Sudoeste 0 1011.6 -1.4 27
2018-07-09 17:00:00 36.7 14 Sudoeste 24 Sudoeste 0 1011.8 -2.1 26
2018-07-09 16:00:00 36.1 13 Sudoeste 24 Sudoeste 0 1012.4 -2.1 25
2018-07-09 15:00:00 35.2 12 Oeste 24 Oeste 0 1013 -1.9 28
2018-07-09 14:00:00 34.1 8 Oeste 21 Oeste 0 1013.9 -1.1 28
2018-07-09 13:00:00 32.1 7 Oeste 17 Oeste 0 1014.5 -0.6 33
2018-07-09 12:00:00 29.9 8 Noroeste 15 Norte 0 1014.9 -- 38
2018-07-09 11:00:00 27.7 8 Norte 15 Norte 0 1015 0.3 48
2018-07-09 10:00:00 25.3 8 Norte 13 Norte 0 1015.1 0.7 57
2018-07-09 09:00:00 -- 7 Norte 13 Norte 0 -- -- 63
2018-07-09 08:00:00 21.2 0 Calma 8 Sur 0 1014.7 0.7 72
2018-07-09 07:00:00 20.5 5 Sur 13 Sudoeste 0 1014.4 0.4 72
2018-07-09 06:00:00 20.7 5 Sudoeste 9 Sudoeste 0 1014.2 0.2 70
2018-07-09 05:00:00 21.6 3 Sur 11 Sudoeste 0 1014 -0.3 68
2018-07-09 04:00:00 22.8 10 Sudoeste 22 Sudoeste 0 1014 -0.3 66
2018-07-09 03:00:00 22.7 16 Sur 24 Sur 0 1014 0.1 68
2018-07-09 02:00:00 23.9 15 Sur 18 Sur 0 1014.3 1 66
2018-07-09 01:00:00 26.3 2 Sur 13 Sur 0 1014.3 2 54
2018-07-09 00:00:00 27.9 7 Sudoeste 18 Sudoeste 0 1013.9 2.1 46
2018-07-08 23:00:00 30.2 12 Sudoeste 26 Oeste 0 1013.3 1.9 36
2018-07-08 22:00:00 31.9 18 Oeste 28 Oeste 0 1012.3 0.6 29
2018-07-08 21:00:00 34.2 19 Oeste 32 Sudoeste 0 1011.8 0 27
2018-07-08 20:00:00 34.6 20 Sudoeste 30 Sudoeste 0 1011.4 -0.8 29
2018-07-08 19:00:00 35.3 23 Sudoeste 33 Sudoeste 0 1011.7 -0.8 30
2018-07-08 18:00:00 36.2 15 Sudoeste 26 Oeste 0 1011.8 -1.4 25
2018-07-08 17:00:00 36.1 10 Sudoeste 24 Oeste 0 1012.2 -1.4 25
2018-07-08 16:00:00 35.5 11 Sudoeste 26 Oeste 0 1012.5 -1.5 25
2018-07-08 15:00:00 34.8 9 Sudoeste 17 Oeste 0 1013.2 -1 27
2018-07-08 14:00:00 33.1 6 Oeste 17 Sudoeste 0 1013.6 -0.5 31
2018-07-08 13:00:00 31.6 6 Sudoeste 17 Sudoeste 0 1014 0 36
2018-07-08 12:00:00 29.6 4 Sudoeste 13 Norte 0 1014.2 0.5 44
2018-07-08 11:00:00 27.3 7 Oeste 17 Oeste 0 1014.1 1 52
2018-07-08 10:00:00 25.4 5 Sudoeste 9 Oeste 0 1014 1.3 62
2018-07-08 09:00:00 23.6 0 Calma 8 Sudoeste 0 1013.7 1.3 68
2018-07-08 08:00:00 20.8 2 Sudeste 8 Sudeste 0 1013.1 0.9 77
2018-07-08 07:00:00 20.3 0 Calma 8 Sudeste 0 1012.7 0.7 75
2018-07-08 06:00:00 20.6 7 Sudeste 9 Sudeste 0 1012.4 0.1 74
2018-07-08 05:00:00 21.8 6 Sudoeste 13 Sur 0 1012.2 -0.2 71
2018-07-08 04:00:00 22.4 10 Sur 17 Sudoeste 0 1012 -0.6 67
2018-07-08 03:00:00 23 13 Sudoeste 21 Sudoeste 0 1012.3 0.1 62
2018-07-08 02:00:00 23.4 11 Sur 21 Sur 0 1012.4 0.7 60
2018-07-08 01:00:00 24.7 11 Sur 26 Sudoeste 0 1012.6 2.1 51
2018-07-08 00:00:00 26.5 18 Sudoeste 30 Sudoeste 0 1012.2 2.2 44
2018-07-07 23:00:00 29.4 20 Sudoeste 28 Sudoeste 0 1011.7 2.3 33
2018-07-07 22:00:00 31.9 18 Sudoeste 30 Oeste 0 1010.5 1 28
2018-07-07 21:00:00 33.8 19 Sudoeste 28 Sudoeste 0 1010 0.2 27
2018-07-07 20:00:00 36.2 13 Oeste 22 Sudoeste 0 1009.4 -1.1 20
2018-07-07 19:00:00 36.7 11 Sudoeste 33 Oeste 0 1009.5 -1.5 19
2018-07-07 18:00:00 36.4 10 Noroeste 22 Noroeste 0 1009.8 -1.8 18
2018-07-07 17:00:00 36.1 9 Oeste 24 Norte 0 1010.5 -1.8 20
2018-07-07 16:00:00 35.3 9 Norte 22 Noroeste 0 1011 -2.1 23
2018-07-07 15:00:00 34.5 12 Oeste 24 Noroeste 0 1011.6 -1.8 25
2018-07-07 14:00:00 32.9 6 Oeste 15 Noroeste 0 1012.3 -1.2 27
2018-07-07 13:00:00 31.8 4 Nordeste 13 Norte 0 1013.1 -0.5 30
2018-07-07 12:00:00 30 4 Nordeste 15 Nordeste 0 1013.4 -0.1 33
2018-07-07 11:00:00 27.7 2 Nordeste 11 Nordeste 0 1013.5 0.2 41
2018-07-07 10:00:00 25.4 5 Este 9 Este 0 1013.6 0.8 49
2018-07-07 09:00:00 22.8 0 Calma 5 Sur 0 1013.5 0.9 59
2018-07-07 08:00:00 19 4 Sudeste 9 Este 0 1013.3 0.4 69
2018-07-07 07:00:00 18.6 5 Nordeste 9 Nordeste 0 1012.8 -0.2 70
2018-07-07 06:00:00 19 5 Este 8 Nordeste 0 1012.6 -0.3 69
2018-07-07 05:00:00 20.1 0 Calma 11 Sudoeste 0 1012.9 -0.5 65
2018-07-07 04:00:00 20.7 5 Sur 13 Sur 0 1013 -0.7 63
2018-07-07 03:00:00 21.7 3 Sur 13 Sudoeste 0 1012.9 -0.8 59
2018-07-07 02:00:00 21.7 8 Sur 22 Sur 0 1013.4 0.2 60
2018-07-07 01:00:00 24.1 15 Sur 22 Sur 0 1013.7 1.4 51
2018-07-07 00:00:00 26.6 10 Sur 18 Sudoeste 0 1013.7 2.2 40
2018-07-06 23:00:00 28.1 10 Sudoeste 24 Sudoeste 0 1013.2 1.9 37
2018-07-06 22:00:00 29.7 17 Sudoeste 30 Sudoeste 0 1012.3 0.9 32
2018-07-06 21:00:00 31.5 19 Sudoeste 33 Sudoeste 0 1011.5 -0.2 27
2018-07-06 20:00:00 33.4 23 Sudoeste 32 Sudoeste 0 1011.3 -1 27
2018-07-06 19:00:00 34.9 17 Sudoeste 30 Sudoeste 0 1011.4 -1.5 26
2018-07-06 18:00:00 35.6 11 Oeste 26 Sudoeste 0 1011.7 -1.7 20
2018-07-06 17:00:00 34.6 7 Nordeste 26 Sudoeste 0 1012.3 -1.8 20
2018-07-06 16:00:00 34.3 11 Sudoeste 24 Oeste 0 1012.9 -1.8 23
2018-07-06 15:00:00 33.5 9 Oeste 26 Noroeste 0 1013.4 -1.7 26
2018-07-06 14:00:00 31.7 9 Oeste 17 Oeste 0 1014.1 -1 32
2018-07-06 13:00:00 30.2 5 Este 15 Noroeste 0 1014.7 -0.5 37
2018-07-06 12:00:00 27.8 5 Norte 15 Nordeste 0 1015.1 -0.2 43
2018-07-06 11:00:00 26 5 Norte 15 Norte 0 1015.1 0.2 48
2018-07-06 10:00:00 23.8 7 Nordeste 11 Nordeste 0 1015.2 0.4 60
2018-07-06 09:00:00 20.8 4 Nordeste 13 Norte 0 1015.3 0.9 73
2018-07-06 08:00:00 18.8 7 Norte 8 Norte 0 1014.9 0.6 79
2018-07-06 07:00:00 17.5 0 Calma 8 Este 0 1014.8 0.4 82
2018-07-06 06:00:00 17.8 0 Calma 5 Sur 0 1014.4 -0.6 80
2018-07-06 05:00:00 18.2 4 Sudeste 8 Sudeste 0 1014.3 -1.1 80
2018-07-06 04:00:00 18.5 2 Sur 9 Sudeste 0 1014.4 -1.2 79
2018-07-06 03:00:00 19.8 5 Sudeste 9 Sudeste 0 1015 -0.4 76
2018-07-06 02:00:00 20.2 8 Sur 17 Sur 0 1015.4 0.2 73
2018-07-06 01:00:00 21.5 12 Sur 21 Sur 0 1015.6 1.2 67
2018-07-06 00:00:00 23 11 Sur 21 Sudoeste 0 1015.4 1.2 58
2018-07-05 23:00:00 24.1 16 Sudoeste 24 Sudoeste 0 1015.2 1.3 54
2018-07-05 22:00:00 25.4 19 Sudoeste 30 Sudoeste 0 1014.4 0.2 51
2018-07-05 21:00:00 27.4 22 Sudoeste 32 Sudoeste 0 1014.2 -0.3 44
2018-07-05 20:00:00 29.1 23 Sudoeste 35 Sudoeste 0 1013.9 -0.9 40
2018-07-05 19:00:00 29.7 25 Sudoeste 37 Sudoeste 0 1014.2 -1.3 36
2018-07-05 18:00:00 31.2 21 Sudoeste 33 Sudoeste 0 1014.5 -1.6 32
2018-07-05 17:00:00 32 17 Sudoeste 28 Oeste 0 1014.8 -1.9 29
2018-07-05 16:00:00 31.4 18 Oeste 32 Oeste 0 1015.5 -1.6 26
2018-07-05 15:00:00 30.3 10 Oeste 26 Oeste 0 1016.1 -1.2 29
2018-07-05 14:00:00 29 12 Oeste 24 Oeste 0 1016.7 -0.9 32
2018-07-05 13:00:00 27.6 10 Norte 22 Norte 0 1017.1 -0.8 37
2018-07-05 12:00:00 26.6 6 Sudeste 13 Sudeste 0 1017.3 -0.4 41
2018-07-05 11:00:00 25.2 5 Nordeste 13 Este 0 1017.6 0.4 47
2018-07-05 10:00:00 23.3 7 Norte 24 Norte 0 1017.9 0.8 53
2018-07-05 09:00:00 21.6 11 Norte 15 Norte 0 1017.7 1.1 61
2018-07-05 08:00:00 18.8 4 Norte 9 Norte 0 1017.2 0.7 77
2018-07-05 07:00:00 17.4 8 Sur 11 Sur 0 1017.1 0.6 84
2018-07-05 06:00:00 17.4 9 Sudeste 11 Sudeste 0 1016.6 -0.2 83
2018-07-05 05:00:00 19.2 3 Nordeste 9 Oeste 0 1016.5 -0.3 73
2018-07-05 04:00:00 19.6 7 Oeste 11 Sudoeste 0 1016.5 -0.3 74
2018-07-05 03:00:00 19.9 4 Sur 18 Sur 0 1016.8 0.5 76
2018-07-05 02:00:00 20.2 13 Sur 21 Sur 0 1016.8 1 77
2018-07-05 01:00:00 22 14 Sur 18 Sur 0 1016.8 1.7 65
2018-07-05 00:00:00 23.1 9 Sur 22 Sudoeste 0 1016.3 1.8 57
2018-07-04 23:00:00 24.7 14 Sudoeste 30 Oeste 0 1015.8 1.8 52
2018-07-04 22:00:00 25.9 24 Oeste 33 Oeste 0 1015.1 1 47
2018-07-04 21:00:00 28.2 23 Oeste 33 Oeste 0 1014.5 0.4 39
2018-07-04 20:00:00 30.1 20 Noroeste 33 Oeste 0 1014 -0.1 29
2018-07-04 19:00:00 30.1 19 Noroeste 33 Oeste 0 1014.1 -0.4 29
2018-07-04 18:00:00 30.7 20 Noroeste 37 Noroeste 0 1014.1 -0.7 29
2018-07-04 17:00:00 30.7 17 Oeste 33 Oeste 0 1014.1 -1.2 29
2018-07-04 16:00:00 30.3 18 Oeste 35 Oeste 0 1014.5 -- 28
2018-07-04 15:00:00 28.7 9 Sudoeste 30 Oeste 0 1014.8 -0.9 31
2018-07-04 14:00:00 27.4 13 Noroeste 30 Sudoeste -- 1015.3 -0.3 34
2018-07-04 13:00:00 -- 9 Oeste 24 Oeste -- -- -- --
2018-07-04 12:00:00 24.7 11 Oeste 24 Oeste 0 1015.7 0.9 48
2018-07-04 11:00:00 22.8 6 Oeste 15 Oeste 0 1015.6 1.3 56
2018-07-04 10:00:00 21 6 Oeste 13 Noroeste 0 1015.3 1.6 62
2018-07-04 09:00:00 19.3 6 Noroeste 15 Noroeste 0 1014.8 1.4 67
2018-07-04 08:00:00 17.3 6 Sudoeste 18 Sur 0 1014.3 1.2 78
2018-07-04 07:00:00 16.6 0 Calma 8 Sudeste 0 1013.7 0.6 85
2018-07-04 06:00:00 17.2 3 Sudoeste 11 Sur 0 1013.4 0.3 84
2018-07-04 05:00:00 18.4 7 Sur 13 Sur 0 1013.1 -0.1 81
2018-07-04 04:00:00 18.8 10 Sudoeste 21 Sur 0 1013.1 -0.2 83
2018-07-04 03:00:00 19.2 13 Sur 21 Sur 0 1013.1 0.1 82
2018-07-04 02:00:00 19.9 14 Sur 22 Sudoeste 0 1013.2 0.8 79
2018-07-04 01:00:00 20.7 13 Sur 24 Sur 0 1013.3 1.9 76
2018-07-04 00:00:00 21.9 14 Sudoeste 24 Sudoeste 0 1013 2.2 63
2018-07-03 23:00:00 23.2 15 Sudoeste 30 Sudoeste 0 1012.4 2 57
2018-07-03 22:00:00 25.3 20 Sudoeste 37 Sudoeste 0 1011.4 1 51
2018-07-03 21:00:00 28.8 26 Sudoeste 37 Sudoeste 0 1010.8 0.1 40
2018-07-03 20:00:00 31.1 23 Sudoeste 37 Sudoeste 0 1010.4 -0.4 36
2018-07-03 19:00:00 31.6 27 Sudoeste 41 Sudoeste 0 1010.4 -0.9 36
2018-07-03 18:00:00 32.8 21 Sudoeste 33 Sudoeste 0 1010.7 -1.1 32
2018-07-03 17:00:00 33.2 9 Sudoeste 24 Sudoeste 0 1010.8 -1.4 23
2018-07-03 16:00:00 32.8 13 Oeste 30 Noroeste 0 1011.3 -1.4 26
2018-07-03 15:00:00 31.7 12 Oeste 26 Sudoeste 0 1011.8 -1.1 30
2018-07-03 14:00:00 30.6 9 Oeste 21 Oeste 0 1012.2 -0.8 32
2018-07-03 13:00:00 29.1 5 Norte 17 Este 0 1012.7 -0.5 38
2018-07-03 12:00:00 27.6 8 Este 21 Este 0 1012.9 -0.1 44
2018-07-03 11:00:00 25.3 6 Nordeste 15 Nordeste 0 1013 0.1 55
2018-07-03 10:00:00 23.4 8 Este 15 Este 0 1013.2 0.5 62
2018-07-03 09:00:00 20.8 5 Nordeste 9 Nordeste 0 1013 0.3 76
2018-07-03 08:00:00 17.9 0 Calma 5 Nordeste 0 1012.9 0.3 88
2018-07-03 07:00:00 16.6 6 Sudeste 9 Sur 0 1012.7 0.1 90
2018-07-03 06:00:00 17.7 2 Sur 11 Sur 0 1012.7 -0.1 87
2018-07-03 05:00:00 17.9 6 Sur 11 Sur 0 1012.6 -0.4 86
2018-07-03 04:00:00 19.4 9 Sudoeste 15 Sudoeste 0 1012.6 -1 80
2018-07-03 03:00:00 20 3 Sudoeste 11 Sur 0 1012.8 -0.9 73
2018-07-03 02:00:00 20.5 5 Sur 13 Sudoeste 0 1013 -0.2 70
2018-07-03 01:00:00 21.8 8 Sudoeste 21 Oeste 0 1013.6 1.1 64
2018-07-03 00:00:00 22.5 11 Sudoeste 21 Oeste 0 1013.7 1.5 62
2018-07-02 23:00:00 23.3 14 Sudoeste 26 Sudoeste 0 1013.2 1 60
2018-07-02 22:00:00 24.3 21 Sudoeste 32 Sudoeste 0 1012.5 0.3 57
2018-07-02 21:00:00 26.5 20 Sudoeste 32 Sudoeste 0 1012.2 -0.4 48
2018-07-02 20:00:00 27.6 18 Sudoeste 30 Sur 0 1012.2 -0.8 45
2018-07-02 19:00:00 29.3 10 Oeste 26 Oeste 0 1012.2 -1.1 36
2018-07-02 18:00:00 29 13 Oeste 26 Oeste 0 1012.6 -1.1 37
2018-07-02 17:00:00 29.1 13 Oeste 22 Oeste 0 1013 -0.8 37
2018-07-02 16:00:00 28.4 13 Oeste 26 Noroeste 0 1013.3 -0.9 38
2018-07-02 15:00:00 26.4 7 Oeste 24 Noroeste 0 1013.7 -0.6 43
2018-07-02 14:00:00 26.2 8 Sudoeste 21 Oeste 0 1013.8 -0.4 44
2018-07-02 13:00:00 24.9 8 Oeste 18 Oeste 0 1014.2 0.2 50
2018-07-02 12:00:00 23.9 9 Noroeste 15 Noroeste 0 1014.3 0.7 55
2018-07-02 11:00:00 22.5 4 Sudeste 11 Este 0 1014.2 1.2 63
2018-07-02 10:00:00 20.4 3 Sudeste 9 Este 0 1014 1.6 74
2018-07-02 09:00:00 18 6 Norte 13 Norte 0 1013.6 1.6 87
2018-07-02 08:00:00 17.3 8 Noroeste 17 Norte 0 1013 1.2 88
2018-07-02 07:00:00 18.1 10 Noroeste 15 Norte 0 1012.4 0.7 85
2018-07-02 06:00:00 18.6 12 Oeste 18 Sudoeste 0 1012 0.1 84
2018-07-02 05:00:00 18.8 13 Sudoeste 22 Sudoeste 0 1011.8 -0.1 83
2018-07-02 04:00:00 18.1 7 Sur 13 Sudoeste 0 1011.7 -0.2 85
2018-07-02 03:00:00 18.5 8 Sur 18 Sudoeste 0 1011.9 0 82
2018-07-02 02:00:00 19 12 Sudoeste 18 Sudoeste 0 1011.9 0.4 78
2018-07-02 01:00:00 19.7 13 Sudoeste 21 Sudoeste 0 1011.9 1 74
2018-07-02 00:00:00 20.7 13 Sudoeste 22 Sudoeste 0 1011.9 1.5 74
2018-07-01 23:00:00 21.6 14 Sudoeste 28 Sudoeste 0 1011.5 1.6 69
2018-07-01 22:00:00 22.7 17 Sudoeste 32 Sudoeste 0 1010.9 1.2 60
2018-07-01 21:00:00 24.2 19 Sudoeste 39 Sudoeste 0 1010.4 0.5 51
2018-07-01 20:00:00 25.1 24 Sudoeste 45 Sudoeste 0 1009.9 0 48
2018-07-01 19:00:00 25.7 28 Sudoeste 42 Sudoeste 0 1009.7 -0.5 47
2018-07-01 18:00:00 26.5 28 Sudoeste 45 Sudoeste 0 1009.9 -0.5 45
2018-07-01 17:00:00 26.4 30 Sudoeste 42 Sudoeste 0 1009.9 -0.8 46
2018-07-01 16:00:00 26.5 27 Sudoeste 42 Sudoeste 0 1010.2 -0.6 47
2018-07-01 15:00:00 26.5 23 Sudoeste 37 Oeste 0 1010.4 -0.5 45
2018-07-01 14:00:00 25.5 16 Sudoeste 30 Sudoeste 0 1010.7 -0.1 50
2018-07-01 13:00:00 24.9 10 Sudoeste 24 Sudoeste 0 1010.8 0.5 50
2018-07-01 12:00:00 23.2 9 Oeste 21 Sudoeste 0 1010.9 0.8 57
2018-07-01 11:00:00 21.9 10 Sudoeste 21 Oeste 0 1010.8 1.2 66
2018-07-01 10:00:00 21.2 7 Oeste 15 Sudoeste 0 1010.3 1.2 72
2018-07-01 09:00:00 19.2 6 Sur 11 Sur 0 1010.1 1.4 83
2018-07-01 08:00:00 18.3 8 Sur 13 Sur 0 1009.6 1.2 87
2018-07-01 07:00:00 18.5 10 Sudoeste 22 Sudoeste 0 1009.1 0.6 86
2018-07-01 06:00:00 18.7 14 Sudoeste 22 Sudoeste 0 1008.7 0.1 87
2018-07-01 05:00:00 18.4 13 Sudoeste 21 Sudoeste 0 1008.4 -0.2 89
2018-07-01 04:00:00 18.4 12 Sudoeste 18 Sudoeste 0 1008.5 0 89
2018-07-01 03:00:00 18.7 10 Sudoeste 22 Sudoeste 0 1008.6 0.6 87
2018-07-01 02:00:00 19.5 12 Sudoeste 22 Sudoeste 0 1008.6 1.3 80
2018-07-01 01:00:00 20.2 16 Sudoeste 24 Oeste 0 1008.5 1.8 83
2018-07-01 00:00:00 21.1 19 Sudoeste 30 Oeste 0 1008 1.6 79
2018-06-30 23:00:00 21.8 18 Oeste 26 Sudoeste 0 1007.3 1.2 73
2018-06-30 22:00:00 23 16 Sudoeste 28 Sudoeste 0 1006.7 0.4 65
2018-06-30 21:00:00 24.5 17 Sudoeste 35 Sudoeste 0 1006.4 0 56
2018-06-30 20:00:00 25.5 23 Sudoeste 33 Sudoeste 0 1006.1 -0.5 51
2018-06-30 19:00:00 25.2 22 Sudoeste 33 Sudoeste 0 1006.3 -0.2 57
2018-06-30 18:00:00 24.8 14 Sudoeste 30 Sudoeste 0 1006.4 0.6 65
2018-06-30 17:00:00 23.5 22 Sudoeste 46 Sudoeste 0 1006.6 0.6 71
2018-06-30 16:00:00 24 26 Sudoeste 48 Sudoeste 0 1006.5 0.3 71
2018-06-30 15:00:00 26.8 25 Sudoeste 41 Sudoeste 0 1005.8 -0.3 49
2018-06-30 14:00:00 26.9 25 Sur 42 Sudoeste 0 1006 0 45
2018-06-30 13:00:00 26.1 21 Sudoeste 33 Sudoeste 0 1006.2 0 49
2018-06-30 12:00:00 25.2 15 Sudoeste 35 Oeste 0 1006.1 0.2 52
2018-06-30 11:00:00 23 9 Sudoeste 18 Sudeste 0 1006 0.5 67
2018-06-30 10:00:00 21.9 13 Sudoeste 24 Sudoeste 0 1006.2 0.8 74
2018-06-30 09:00:00 19.4 10 Sudoeste 15 Sudoeste 0 1005.9 0.4 82
2018-06-30 08:00:00 17.7 5 Sudeste 9 Sudeste 0 1005.5 -0.1 87
2018-06-30 07:00:00 17.5 6 Sudeste 11 Sur 0 1005.4 -0.1 86
2018-06-30 06:00:00 17.7 8 Sur 9 Sur 0 1005.5 0 86
2018-06-30 05:00:00 18.1 8 Sur 18 Sur 0 1005.6 0.1 86
2018-06-30 04:00:00 17.9 12 Sur 17 Sur 0 1005.5 0 87
2018-06-30 03:00:00 18.8 9 Sur 15 Sur 0 1005.5 0.3 85
2018-06-30 02:00:00 19 9 Sur 24 Sudoeste 0 1005.5 1 84
2018-06-30 01:00:00 19.5 22 Sudoeste 28 Sudoeste 0 1005.5 1.5 82
2018-06-30 00:00:00 20.5 15 Sudoeste 30 Sudoeste 0 1005.2 1.8 77
2018-06-29 23:00:00 22.3 18 Sudoeste 28 Sudoeste 0 1004.5 1.5 67
2018-06-29 22:00:00 23.8 17 Sudoeste 30 Sudoeste 0 1004 1.1 59
2018-06-29 21:00:00 26.1 19 Sudoeste 30 Sudoeste 0 1003.4 0.2 52
2018-06-29 20:00:00 27.7 22 Sudoeste 30 Sudoeste 0 1003 -0.5 47
2018-06-29 19:00:00 29.2 19 Sudoeste 30 Oeste 0 1002.9 -0.7 43
2018-06-29 18:00:00 29.2 16 Sudoeste 32 Sudoeste 0 1003.2 -0.9 42
2018-06-29 17:00:00 29.5 17 Sudoeste 30 Sudoeste 0 1003.5 -1.5 43
2018-06-29 16:00:00 29.4 17 Sudoeste 30 Oeste 0 1003.6 -2.1 44
2018-06-29 15:00:00 28.8 10 Oeste 26 Sudoeste 0 1004.1 -1.8 44
2018-06-29 14:00:00 27.2 12 Sudoeste 28 Sudoeste 0 1005 -1.1 51
2018-06-29 13:00:00 25.8 15 Sudoeste 28 Sudoeste 0 1005.7 -0.7 57
2018-06-29 12:00:00 24.6 10 Sudoeste 21 Sudoeste 0 1005.9 -0.3 61
2018-06-29 11:00:00 22.3 12 Sudoeste 21 Sudoeste 0 1006.1 -0.1 71
2018-06-29 10:00:00 20.5 9 Sudoeste 15 Sudoeste 0 1006.4 0.3 80
2018-06-29 09:00:00 19 5 Sur 13 Sur 0 1006.2 0.1 86
2018-06-29 08:00:00 18 3 Sur 9 Sur 0 1006.2 -0.1 89
2018-06-29 07:00:00 17 4 Sur 9 Sur 0 1006.1 -0.5 90
2018-06-29 06:00:00 17.1 6 Sur 9 Sur 0 1006.1 -1.1 89
2018-06-29 05:00:00 17.5 4 Sur 9 Sudoeste 0 1006.3 -1 85
2018-06-29 04:00:00 18.1 6 Sur 18 Sur 0 1006.6 -0.9 82
2018-06-29 03:00:00 18.5 12 Sur 17 Sudoeste 0 1007.2 -0.3 80
2018-06-29 02:00:00 19.1 10 Sur 21 Sur 0 1007.3 0.1 79
2018-06-29 01:00:00 19.9 13 Sur 21 Sur 0 1007.5 0.9 78
2018-06-29 00:00:00 20.7 10 Sur 18 Sur 0 1007.5 1.1 71
2018-06-28 23:00:00 21.7 10 Sudoeste 21 Sudoeste 0 1007.2 0.8 63
2018-06-28 22:00:00 22.8 15 Sudoeste 28 Sudoeste 0 1006.6 0 56
2018-06-28 21:00:00 24.6 23 Sudoeste 37 Sudoeste 0 1006.4 -0.8 52
2018-06-28 20:00:00 25.6 24 Sudoeste 35 Sudoeste 0 1006.4 -1.3 49
2018-06-28 19:00:00 26.3 27 Sudoeste 39 Sudoeste 0 1006.6 -1.5 43
2018-06-28 18:00:00 27.4 21 Sudoeste 32 Sudoeste 0 1007.2 -1.6 43
2018-06-28 17:00:00 25.9 20 Sudoeste 32 Sudoeste 0 1007.7 -1.9 47
2018-06-28 16:00:00 27 17 Sudoeste 32 Sudoeste 0 1008.1 -1.6 49
2018-06-28 15:00:00 27.7 21 Sudoeste 30 Sudoeste 0 1008.8 -1 52
2018-06-28 14:00:00 26 18 Sudoeste 32 Sudoeste 0 1009.6 -0.5 56
2018-06-28 13:00:00 26.2 18 Sudoeste 30 Sudoeste 0 1009.7 -0.9 55
2018-06-28 12:00:00 26.4 10 Sudoeste 24 Sudoeste 0 1009.8 -0.7 54
2018-06-28 11:00:00 24.2 11 Sudoeste 21 Sudoeste -- 1010.1 -0.1 63
2018-06-28 10:00:00 21.9 10 Sur 15 Sur 0 1010.6 0.5 73
2018-06-28 09:00:00 20 8 Sur 13 Sur 0 1010.5 0.7 82
2018-06-28 08:00:00 18.6 6 Sur 15 Sur 0 1010.2 0.3 87
2018-06-28 07:00:00 18.1 11 Sur 13 Sur 0 1010.1 -0.2 87
2018-06-28 06:00:00 18.3 9 Sur 13 Sur 0 1009.8 -1 86
2018-06-28 05:00:00 18.6 7 Sur 13 Sur 0 1009.9 -1.2 82
2018-06-28 04:00:00 18.6 9 Sur 13 Sur 0 1010.3 -0.8 80
2018-06-28 03:00:00 19.5 5 Sur 17 Sur 0 1010.8 -0.4 77
2018-06-28 02:00:00 20.2 12 Sur 18 Sur 0 1011.1 0.1 76
2018-06-28 01:00:00 21.5 12 Sur 21 Sur 0 1011.1 0.6 73
2018-06-28 00:00:00 22.4 13 Sudoeste 26 Sudoeste 0 1011.2 1.3 66
2018-06-27 23:00:00 23.5 17 Sudoeste 32 Sudoeste 0 1011 1.4 59
2018-06-27 22:00:00 25.2 21 Sudoeste 33 Sudoeste 0 1010.5 0.7 52
2018-06-27 21:00:00 29.2 21 Sudoeste 35 Sudoeste 0 1009.9 -0.4 38
2018-06-27 20:00:00 29.9 26 Sudoeste 41 Sudoeste 0 1009.6 -1.2 36
2018-06-27 19:00:00 31 29 Sudoeste 37 Sudoeste 0 1009.8 -1.8 32
2018-06-27 18:00:00 32.1 22 Sudoeste 32 Sudoeste 0 1010.3 -2.1 29
2018-06-27 17:00:00 32.3 18 Sudoeste 32 Sudoeste 0 1010.8 -2.3 32
2018-06-27 16:00:00 31.6 14 Sudoeste 26 Sudoeste 0 1011.6 -2 31
2018-06-27 15:00:00 30.4 11 Sudoeste 24 Sudoeste 0 1012.4 -1.8 37
2018-06-27 14:00:00 29.4 14 Sudoeste 24 Oeste 0 1013.1 -1.7 39
2018-06-27 13:00:00 28 14 Sudoeste 24 Oeste 0 1013.6 -1.4 45
2018-06-27 12:00:00 26 8 Oeste 17 Sudoeste 0 1014.2 -0.7 55
2018-06-27 11:00:00 24 9 Sudoeste 17 Sudoeste 0 1014.8 0.1 64
2018-06-27 10:00:00 21.9 8 Sur 15 Sudoeste 0 1015 0.3 73
2018-06-27 09:00:00 20.2 10 Sudoeste 15 Sudoeste 0 1014.9 0.4 82
2018-06-27 08:00:00 19 7 Sur 13 Sur 0 1014.7 0.4 86
2018-06-27 07:00:00 17.8 3 Sudoeste 9 Sudoeste 0 1014.7 0.6 85
2018-06-27 06:00:00 18.3 6 Sur 11 Sur 0 1014.5 0.2 82
2018-06-27 05:00:00 19.2 7 Sur 17 Sur 0 1014.3 0.1 80
2018-06-27 04:00:00 19.7 9 Sur 17 Sur 0 1014.1 -0.3 77
2018-06-27 03:00:00 20.1 10 Sur 21 Sur 0 1014.3 0 74
2018-06-27 02:00:00 20.5 13 Sur 22 Sur 0 1014.2 0.5 72
2018-06-27 01:00:00 21.2 10 Sur 21 Sur 0 1014.4 1.4 70
2018-06-27 00:00:00 22.6 11 Sur 26 Sudoeste 0 1014.3 2.1 63
2018-06-26 23:00:00 23.2 19 Sudoeste 35 Sudoeste 0 1013.7 2.1 61
2018-06-26 22:00:00 24.7 21 Sudoeste 37 Sudoeste 0 1013 1.5 60
2018-06-26 21:00:00 27.4 24 Sudoeste 41 Sudoeste 0 1012.2 0.5 54
2018-06-26 20:00:00 29 28 Sudoeste 39 Sudoeste 0 1011.6 -0.3 49
2018-06-26 19:00:00 29.9 27 Sudoeste 39 Sudoeste 0 1011.5 -0.8 48
2018-06-26 18:00:00 31.7 18 Sudoeste 32 Oeste 0 1011.7 -1.2 39
2018-06-26 17:00:00 31.5 14 Sudoeste 28 Sur 0 1011.9 -1.5 40
2018-06-26 16:00:00 30.9 11 Sudoeste 22 Sudoeste 0 1012.3 -1.9 42
2018-06-26 15:00:00 29.7 9 Sudoeste 30 Sudoeste 0 1012.9 -1.6 45
2018-06-26 14:00:00 28.3 8 Sudoeste 21 Oeste 0 1013.4 -1.2 49
2018-06-26 13:00:00 26.7 7 Sudoeste 21 Oeste 0 1014.2 -0.5 53
2018-06-26 12:00:00 24.7 8 Norte 18 Noroeste 0 1014.5 -0.4 60
2018-06-26 11:00:00 23 5 Noroeste 18 Oeste 0 1014.6 0.1 66
2018-06-26 10:00:00 21.7 6 Sudoeste 17 Oeste 0 1014.7 0.6 71
2018-06-26 09:00:00 20.1 6 Sudoeste 11 Sudoeste 0 1014.9 1.2 80
2018-06-26 08:00:00 18.8 4 Sur 9 Sur 0 1014.5 0.9 84
2018-06-26 07:00:00 18.5 5 Sudoeste 13 Sudoeste 0 1014.1 0.1 86
2018-06-26 06:00:00 18.7 4 Sur 21 Sudoeste 0 1013.7 -0.5 85
2018-06-26 05:00:00 18.9 10 Sudoeste 17 Sudoeste 0 1013.6 -0.7 83
2018-06-26 04:00:00 19.4 10 Sudoeste 18 Sudoeste 0 1014 -0.4 82
2018-06-26 03:00:00 19.8 10 Sudoeste 18 Sudoeste 0 1014.2 0.1 81
2018-06-26 02:00:00 20.3 12 Sudoeste 24 Sudoeste 0 1014.3 0.9 78
2018-06-26 01:00:00 20.6 13 Sudoeste 30 Sudoeste 0 1014.4 2 80
2018-06-26 00:00:00 20.9 21 Sudoeste 35 Sudoeste 0 1014.1 2.2 82
2018-06-25 23:00:00 22.3 27 Sudoeste 35 Sudoeste 0 1013.4 1.9 77
2018-06-25 22:00:00 24 21 Sudoeste 35 Sudoeste 0 1012.4 1.1 71
2018-06-25 21:00:00 26 28 Sudoeste 35 Sudoeste 0 1011.9 0.2 62
2018-06-25 20:00:00 28.4 22 Sudoeste 35 Sudoeste 0 1011.5 -0.6 50
2018-06-25 19:00:00 29.6 18 Sudoeste 28 Sudoeste 0 1011.3 -1.4 45
2018-06-25 18:00:00 29.7 18 Sudoeste 30 Sudoeste 0 1011.7 -1.4 45
2018-06-25 17:00:00 28.7 19 Sudoeste 30 Sudoeste 0 1012.1 -1.5 47
2018-06-25 16:00:00 27.8 17 Sudoeste 28 Sudoeste 0 1012.7 -1.2 50
2018-06-25 15:00:00 27.3 13 Oeste 30 Sudoeste 0 1013.1 -0.7 52
2018-06-25 14:00:00 25.8 8 Sudoeste 22 Oeste 0 1013.6 -0.3 56
2018-06-25 13:00:00 24.1 3 Nordeste 13 Oeste 0 1013.9 0.1 62
2018-06-25 12:00:00 22.5 6 Noroeste 15 Oeste 0 1013.8 0.5 67
2018-06-25 11:00:00 21.5 8 Oeste 15 Oeste 0 1013.9 1 72
2018-06-25 10:00:00 21.2 10 Sudoeste 18 Sudoeste 0 1013.8 1.1 73
2018-06-25 09:00:00 20.8 12 Sudoeste 21 Sudoeste 0 1013.3 0.5 75
2018-06-25 08:00:00 20.4 8 Sur 11 Sur 0 1012.9 0.2 81
2018-06-25 07:00:00 20.2 7 Sur 13 Sur 0 1012.7 0.1 83
2018-06-25 06:00:00 20.4 9 Sur 17 Sudoeste 0 1012.8 0.3 82
2018-06-25 05:00:00 20.6 10 Sudoeste 26 Sudoeste 0 1012.7 0 81
2018-06-25 04:00:00 20.3 10 Sur 28 Sudoeste 0 1012.6 0.1 83
2018-06-25 03:00:00 21.1 10 Sudoeste 21 Sudoeste 0 1012.5 0.1 81
2018-06-25 02:00:00 21.5 14 Sudoeste 22 Sudoeste 0 1012.7 1.3 79
2018-06-25 01:00:00 21.7 14 Sudoeste 32 Sudoeste 0 1012.5 2.3 81
2018-06-25 00:00:00 22.2 23 Sudoeste 37 Sudoeste 0 1012.4 3 80
2018-06-24 23:00:00 23.3 23 Sudoeste 39 Sudoeste 0 1011.4 2.3 74
2018-06-24 22:00:00 24.8 24 Sudoeste 35 Sudoeste 0 1010.2 1.5 67
2018-06-24 21:00:00 26.7 24 Sudoeste 35 Oeste 0 1009.4 0.6 59
2018-06-24 20:00:00 29 24 Sudoeste 41 Sudoeste 0 1009.1 0.1 50
2018-06-24 19:00:00 30.1 28 Sudoeste 41 Sudoeste 0 1008.7 -0.8 48
2018-06-24 18:00:00 32.5 25 Sudoeste 37 Sudoeste 0 1008.8 -1.3 40
2018-06-24 17:00:00 34 14 Sudoeste 26 Sudoeste 0 1009 -1.6 28
2018-06-24 16:00:00 33.7 10 Sudoeste 21 Oeste 0 1009.5 -1.5 30
2018-06-24 15:00:00 32.3 10 Sudoeste 22 Sur 0 1010.1 -1.2 33
2018-06-24 14:00:00 31.6 10 Sudoeste 22 Oeste 0 1010.6 -0.8 34
2018-06-24 13:00:00 30.6 8 Sudoeste 18 Sudoeste 0 1011 -0.3 37
2018-06-24 12:00:00 28.8 9 Noroeste 21 Oeste 0 1011.3 0 41
2018-06-24 11:00:00 27 7 Oeste 15 Sudoeste 0 1011.4 0.7 46
2018-06-24 10:00:00 25.6 4 Oeste 17 Oeste 0 1011.3 0.9 49
2018-06-24 09:00:00 23.9 3 Sur 5 Sur 0 1011.3 1.1 55
2018-06-24 08:00:00 21.4 0 Calma 8 Norte 0 1010.7 0.6 65
2018-06-24 07:00:00 21.1 0 Calma 9 Oeste 0 1010.4 0.2 64
2018-06-24 06:00:00 21 0 Calma 5 Sur 0 1010.2 -0.4 64
2018-06-24 05:00:00 22 3 Sudoeste 8 Oeste 0 1010.1 -0.9 61
2018-06-24 04:00:00 22.8 5 Noroeste 13 Oeste 0 1010.2 -0.5 55
2018-06-24 03:00:00 23.6 9 Oeste 17 Oeste 0 1010.6 0.2 52
2018-06-24 02:00:00 24.5 12 Oeste 18 Sudoeste 0 1011 1.2 50
2018-06-24 01:00:00 25.5 11 Sudoeste 18 Sudoeste 0 1010.7 1.8 47
2018-06-24 00:00:00 26.9 10 Sudoeste 17 Sudoeste 0 1010.4 2.2 42
2018-06-23 23:00:00 27.7 13 Sudoeste 24 Sudoeste 0 1009.8 2.1 43
2018-06-23 22:00:00 29.6 14 Sudoeste 26 Sudoeste 0 1008.9 1.2 37
2018-06-23 21:00:00 31.1 19 Sudoeste 32 Sudoeste 0 1008.2 0.4 34
2018-06-23 20:00:00 32.9 23 Sudoeste 33 Sudoeste 0 1007.7 -0.4 32
2018-06-23 19:00:00 35.5 17 Sudoeste 28 Sudoeste 0 1007.7 -1.2 26
2018-06-23 18:00:00 36.6 14 Sudoeste 35 Noroeste 0 1007.8 -1.8 23
2018-06-23 17:00:00 36.4 14 Noroeste 26 Oeste 0 1008.1 -2.3 22
2018-06-23 16:00:00 35.5 10 Norte 22 Nordeste 0 1008.9 -2.4 22
2018-06-23 15:00:00 34.4 7 Nordeste 22 Este 0 1009.6 -2.2 24
2018-06-23 14:00:00 32.8 12 Nordeste 21 Nordeste 0 1010.4 -1.8 29
2018-06-23 13:00:00 30.8 10 Norte 21 Nordeste 0 1011.3 -1.1 33
2018-06-23 12:00:00 29 6 Nordeste 15 Norte 0 1011.8 -0.4 40
2018-06-23 11:00:00 26.3 5 Norte 13 Nordeste 0 1012.2 0.3 51
2018-06-23 10:00:00 24.3 5 Norte 9 Norte 0 1012.4 0.7 58
2018-06-23 09:00:00 23.1 2 Nordeste 5 Este 0 1012.2 0.5 65
2018-06-23 08:00:00 19.9 0 Calma 5 Sudeste 0 1011.9 0 79
2018-06-23 07:00:00 18.8 4 Sudeste 11 Sur 0 1011.7 -0.4 82
2018-06-23 06:00:00 19.4 9 Sur 11 Sudeste 0 1011.7 -0.6 77
2018-06-23 05:00:00 19.7 8 Sudeste 9 Sudeste 0 1011.9 -0.4 77
2018-06-23 04:00:00 21.6 0 Calma 8 Norte 0 1012.1 -0.3 68
2018-06-23 03:00:00 22.3 0 Calma 11 Sudoeste 0 1012.3 0.1 65
2018-06-23 02:00:00 23.2 8 Sudoeste 17 Sudoeste 0 1012.3 1 62
2018-06-23 01:00:00 23.4 9 Sudoeste 18 Sudoeste 0 1012.4 2.1 64
2018-06-23 00:00:00 24.7 11 Sudoeste 18 Sudoeste 0 1012.2 2.5 57
2018-06-22 23:00:00 26.2 12 Sudoeste 24 Sudoeste 0 1011.3 2.3 48
2018-06-22 22:00:00 27.1 17 Sudoeste 35 Sudoeste 0 1010.3 1.4 46
2018-06-22 21:00:00 28.9 22 Sudoeste 37 Sudoeste 0 1009.7 0.5 44
2018-06-22 20:00:00 31.4 28 Sudoeste 39 Sudoeste 0 1009 -0.7 38
2018-06-22 19:00:00 34.7 12 Oeste 24 Norte 0 1008.9 -1.4 24
2018-06-22 18:00:00 34.9 14 Sudoeste 33 Sudoeste 0 1009.2 -1.8 24
2018-06-22 17:00:00 34.5 7 Sur 18 Este 0 1009.7 -1.8 22
2018-06-22 16:00:00 34.5 8 Nordeste 21 Nordeste 0 1010.3 -2 22
2018-06-22 15:00:00 32.4 6 Oeste 17 Oeste 0 1011 -2 28
2018-06-22 14:00:00 31.6 7 Sudoeste 17 Sudeste 0 1011.5 -1.8 30
2018-06-22 13:00:00 29.9 5 Nordeste 15 Nordeste 0 1012.3 -0.9 35
2018-06-22 12:00:00 28.7 7 Este 13 Este 0 1013 -0.1 38
2018-06-22 11:00:00 26.5 4 Sudoeste 17 Oeste 0 1013.3 0.6 46
2018-06-22 10:00:00 24.7 5 Sudoeste 17 Sudoeste 0 1013.2 0.6 57
2018-06-22 09:00:00 22.4 12 Sudoeste 18 Sudoeste 0 1013.1 0.5 69
2018-06-22 08:00:00 21.2 5 Sur 8 Sur 0 1012.7 -0.1 68
2018-06-22 07:00:00 20.2 6 Sudeste 9 Sudeste 0 1012.6 -0.6 71
2018-06-22 06:00:00 21.3 5 Nordeste 9 Nordeste 0 1012.6 -1 67
2018-06-22 05:00:00 21.7 2 Sudeste 15 Oeste 0 1012.8 -0.9 64
2018-06-22 04:00:00 22.7 12 Oeste 15 Oeste 0 1013.2 -0.3 60
2018-06-22 03:00:00 23.1 8 Noroeste 17 Oeste 0 1013.6 0.4 60
2018-06-22 02:00:00 23 10 Oeste 15 Oeste 0 1013.7 1.1 60
2018-06-22 01:00:00 22.9 12 Oeste 24 Oeste 0 1013.5 1.9 60
2018-06-22 00:00:00 23.8 16 Oeste 28 Oeste 0 1013.2 2.2 60
2018-06-21 23:00:00 25 19 Oeste 33 Oeste 0 1012.6 2.3 56
2018-06-21 22:00:00 26.6 24 Oeste 37 Oeste 0 1011.6 1.6 47
2018-06-21 21:00:00 28.8 26 Sudoeste 41 Sudoeste 0 1011 0.5 40
2018-06-21 20:00:00 30.4 28 Sudoeste 39 Sudoeste 0 1010.3 -0.5 40
2018-06-21 19:00:00 33.6 18 Sudoeste 30 Sudoeste 0 1010 -1.4 31
2018-06-21 18:00:00 33.9 7 Oeste 24 Noroeste 0 1010.5 -1.5 25
2018-06-21 17:00:00 33.5 4 Nordeste 18 Sur 0 1010.8 -1.6 26
2018-06-21 16:00:00 32.4 9 Oeste 22 Noroeste 0 1011.4 -1.5 28
2018-06-21 15:00:00 30.9 7 Norte 18 Norte 0 1012 -1.1 29
2018-06-21 14:00:00 30.2 11 Oeste 18 Oeste 0 1012.4 -0.2 33
2018-06-21 13:00:00 28.8 5 Norte 15 Este 0 1012.9 0 39
2018-06-21 12:00:00 27.4 6 Este 15 Norte 0 1013.1 1.1 44
2018-06-21 11:00:00 25 5 Noroeste 13 Sudoeste 0 1012.6 1.3 55
2018-06-21 10:00:00 22.5 6 Sur 17 Sudeste 0 1012.9 0.1 75
2018-06-21 09:00:00 21.3 5 Este 18 Norte 0 1012 -0.5 80
2018-06-21 08:00:00 20.8 19 Nordeste 32 Norte 0 1011.3 -0.5 85
2018-06-21 07:00:00 20.8 5 Oeste 15 Este 0 1012.8 0.4 82
2018-06-21 06:00:00 20.8 9 Sur 17 Noroeste 0 1012.5 -0.5 84
2018-06-21 05:00:00 21.1 6 Este 11 Este 0 1011.8 -1.7 85
2018-06-21 04:00:00 21.2 5 Sur 26 Norte 0.3 1012.4 -0.2 79
2018-06-21 03:00:00 21.5 8 Sudoeste 22 Sudoeste 0 1013 0.7 72
2018-06-21 02:00:00 21.6 15 Sudoeste 26 Sur 0 1013.5 2 72
2018-06-21 01:00:00 22.1 15 Sudoeste 24 Sudoeste 0 1012.6 2.2 69
2018-06-21 00:00:00 23.2 15 Sudoeste 35 Sudoeste 0 1012.3 2.4 63
2018-06-20 23:00:00 24.4 19 Sudoeste 32 Sudoeste 0 1011.5 1.8 61
2018-06-20 22:00:00 25.3 19 Sudoeste 30 Sudoeste 0 1010.4 0.9 59
2018-06-20 21:00:00 27.6 18 Sudoeste 32 Sudoeste 0 1009.9 0.1 52
2018-06-20 20:00:00 29.6 21 Sudoeste 32 Sudoeste 0 1009.7 -0.7 46
2018-06-20 19:00:00 33.8 23 Sudoeste 35 Sudoeste 0 1009.5 -1.4 30
2018-06-20 18:00:00 34.9 9 Sudoeste 26 Oeste 0 1009.8 -2 22
2018-06-20 17:00:00 34.9 11 Oeste 21 Oeste 0 1010.4 -1.8 22
2018-06-20 16:00:00 33.7 8 Noroeste 22 Oeste 0 1010.9 -1.9 23
2018-06-20 15:00:00 32.2 8 Oeste 26 Noroeste 0 1011.8 -0.8 26
2018-06-20 14:00:00 31.3 16 Oeste 32 Sudoeste 0 1012.2 0.2 29
2018-06-20 13:00:00 29.4 21 Sudoeste 32 Sudoeste 0 1012.8 -0.2 34
2018-06-20 12:00:00 30.4 18 Este 28 Este 0 1012.6 -0.8 26
2018-06-20 11:00:00 28.2 18 Nordeste 30 Nordeste 0 1012 -1.1 33
2018-06-20 10:00:00 25.3 14 Nordeste 18 Nordeste 0 1013 0.5 44
2018-06-20 09:00:00 23.2 10 Nordeste 13 Nordeste 0 1013.4 1.1 51
2018-06-20 08:00:00 20.6 5 Norte 13 Nordeste 0 1013.1 1.1 63
2018-06-20 07:00:00 19.9 10 Nordeste 13 Nordeste 0 1012.5 0.4 64
2018-06-20 06:00:00 20.6 10 Nordeste 18 Norte 0 1012.3 0.1 62
2018-06-20 05:00:00 21.2 13 Norte 21 Norte 0 1012 -0.3 57
2018-06-20 04:00:00 21.7 12 Noroeste 22 Oeste 0 1012.1 0 57
2018-06-20 03:00:00 22.6 4 Noroeste 11 Noroeste 0 1012.2 0.1 58
2018-06-20 02:00:00 23.5 3 Sur 8 Sur 0 1012.3 0.4 57
2018-06-20 01:00:00 25.3 0 Calma 9 Norte 0 1012.1 1.1 52
2018-06-20 00:00:00 26.4 7 Norte 17 Oeste 0 1012.1 1.5 46
2018-06-19 23:00:00 28 12 Oeste 26 Sudoeste 0 1011.9 1.9 38
2018-06-19 22:00:00 30.2 10 Sudoeste 28 Sudoeste 0 1011 1 32
2018-06-19 21:00:00 32.5 21 Sudoeste 33 Sudoeste 0 1010.6 0.1 30
2018-06-19 20:00:00 35.9 10 Oeste 28 Oeste 0 1010 -1.1 21
2018-06-19 19:00:00 36.3 8 Sur 18 Oeste 0 1010 -1.6 20
2018-06-19 18:00:00 36.3 8 Sudoeste 21 Noroeste 0 1010.5 -1.8 20
2018-06-19 17:00:00 36 9 Oeste 21 Sur 0 1011.1 -1.9 21
2018-06-19 16:00:00 35.4 7 Sur 22 Sur 0 1011.6 -2 21
2018-06-19 15:00:00 34.5 10 Sudoeste 24 Sur 0 1012.3 -1.5 22
2018-06-19 14:00:00 33.2 7 Sudeste 21 Sudeste 0 1013 -1.2 23
2018-06-19 13:00:00 31.6 7 Noroeste 18 Este 0 1013.6 -1 25
2018-06-19 12:00:00 30.5 9 Este 18 Este 0 1013.8 -0.7 27
2018-06-19 11:00:00 28.1 9 Nordeste 21 Nordeste 0 1014.2 -0.2 37
2018-06-19 10:00:00 25.5 11 Nordeste 18 Nordeste 0 1014.6 0.4 48
2018-06-19 09:00:00 22.9 5 Nordeste 13 Norte 0 1014.5 0.5 58
2018-06-19 08:00:00 20.9 0 Calma 5 Nordeste 0 1014.4 0.5 70
2018-06-19 07:00:00 19.9 5 Norte 8 Noroeste 0 1014.2 0.5 71
2018-06-19 06:00:00 20.7 2 Norte 5 Norte 0 1014 0.3 66
2018-06-19 05:00:00 21.1 0 Calma 5 Noroeste 0 1013.9 -0.1 63
2018-06-19 04:00:00 21.7 0 Calma 9 Oeste 0 1013.7 -0.2 63
2018-06-19 03:00:00 22.9 5 Sudoeste 17 Sudoeste 0 1013.7 -0.1 57
2018-06-19 02:00:00 23.1 10 Oeste 21 Oeste 0 1014 0.7 56
2018-06-19 01:00:00 23.4 15 Oeste 24 Oeste 0 1013.9 1.3 57
2018-06-19 00:00:00 24.2 18 Oeste 28 Oeste 0 1013.8 1.9 57
2018-06-18 23:00:00 24.9 18 Oeste 30 Oeste 0 1013.3 2 55
2018-06-18 22:00:00 26.3 22 Oeste 30 Oeste 0 1012.6 2.1 50
2018-06-18 21:00:00 28.5 22 Sudoeste 33 Oeste 0 1011.9 1.7 42
2018-06-18 20:00:00 31.3 26 Sudoeste 39 Oeste 0 1011.3 0.8 36
2018-06-18 19:00:00 35.2 28 Sudoeste 37 Sudoeste 0 1010.5 -0.6 26
2018-06-18 18:00:00 38.1 18 Sur 32 Sur 0 1010.2 -1.5 24
2018-06-18 17:00:00 38.6 17 Nordeste 30 Este 0 1010.5 -1.8 17
2018-06-18 16:00:00 38.4 11 Este 28 Este 0 1011.1 -1.7 17
2018-06-18 15:00:00 37.3 15 Este 28 Este 0 1011.7 -1.6 19
2018-06-18 14:00:00 35.7 15 Nordeste 30 Este 0 1012.3 -1.5 21
2018-06-18 13:00:00 34.3 16 Este 28 Este 0 1012.8 -1.1 23
2018-06-18 12:00:00 32.5 17 Este 28 Este 0 1013.3 -0.6 25
2018-06-18 11:00:00 28.7 12 Nordeste 24 Norte 0 1013.8 0.3 35
2018-06-18 10:00:00 26.9 15 Norte 24 Nordeste 0 1013.9 0.2 43
2018-06-18 09:00:00 24 6 Nordeste 13 Nordeste 0 1013.9 0.4 52
2018-06-18 08:00:00 21.4 0 Calma 9 Nordeste 0 1013.5 0.3 60
2018-06-18 07:00:00 20.4 6 Este 13 Sur 0 1013.7 0.7 61
2018-06-18 06:00:00 21 5 Este 13 Este 0 1013.5 0.3 59
2018-06-18 05:00:00 22.5 3 Sur 9 Sudoeste 0 1013.2 0.3 53
2018-06-18 04:00:00 23.6 0 Calma 21 Sudoeste 0 1013 -0.1 47
2018-06-18 03:00:00 25.2 17 Sudoeste 33 Sudoeste 0 1013.2 0.2 41
2018-06-18 02:00:00 25.9 15 Sudoeste 26 Sudoeste 0 1012.9 -0.3 41
2018-06-18 01:00:00 27 14 Sudoeste 21 Sur 0 1013.1 0.9 37
2018-06-18 00:00:00 27 0 Calma 18 Sudoeste 0 1013 1.4 41
2018-06-17 23:00:00 29.5 13 Sudoeste 28 Sudoeste 0 1013.2 1.9 34
2018-06-17 22:00:00 30.9 18 Sudoeste 32 Sudoeste 0 1012.2 0.7 37
2018-06-17 21:00:00 34.6 18 Sudoeste 28 Sudoeste 0 1011.6 -0.3 29
2018-06-17 20:00:00 37.9 2 Noroeste 15 Sur 0 1011.3 -0.7 19
2018-06-17 19:00:00 37.5 8 Sudoeste 15 Norte 0 1011.5 -1 20
2018-06-17 18:00:00 37.3 10 Oeste 22 Oeste 0 1011.9 -1.1 20
2018-06-17 17:00:00 36.8 8 Oeste 21 Oeste 0 1012 -1.3 21
2018-06-17 16:00:00 35.1 8 Norte 21 Norte 0 1012.5 -1 24
2018-06-17 15:00:00 33.9 6 Sur 15 Sur 0 1013 -0.6 25
2018-06-17 14:00:00 32.8 7 Oeste 15 Noroeste 0 1013.3 -0.4 27
2018-06-17 13:00:00 31.1 5 Noroeste 13 Noroeste 0 1013.5 -0.1 30
2018-06-17 12:00:00 28.8 5 Nordeste 13 Nordeste 0 1013.6 0.2 33
2018-06-17 11:00:00 26.5 3 Norte 13 Noroeste 0 1013.7 0.8 40
2018-06-17 10:00:00 25 2 Oeste 11 Oeste 0 1013.6 1.2 45
2018-06-17 09:00:00 23.6 0 Calma 8 Este 0 1013.4 1.5 56
2018-06-17 08:00:00 19.9 0 Calma 9 Sudeste 0 1012.9 1.2 70
2018-06-17 07:00:00 19.1 7 Sudeste 11 Sur 0 1012.4 1 72
2018-06-17 06:00:00 19.4 5 Sur 13 Sur 0 1011.9 0.8 71
2018-06-17 05:00:00 20.3 7 Sur 15 Sur 0 1011.7 0.8 68
2018-06-17 04:00:00 21.1 10 Sur 21 Sur 0 1011.4 0.5 65
2018-06-17 03:00:00 22.3 14 Sur 18 Sur 0 1011.1 0.4 55
2018-06-17 02:00:00 23.3 8 Sur 17 Oeste 0 1010.9 0.7 51
2018-06-17 01:00:00 23.9 13 Oeste 22 Oeste 0 1010.9 1.6 47
2018-06-17 00:00:00 25.2 14 Oeste 22 Oeste 0 1010.7 2 45